Time;durP1;ratioP1;P1;durP2;ratioP2;P2;SDS_P1;SDS_P2;PMS_P1;PMS_P2;Temp;Humidity;BMP_temperature;BMP_pressure;BME280_temperature;BME280_humidity;BME280_pressure;Samples;Min_cycle;Max_cycle;Signal;HPM_P1;HPM_P2
2022/07/21 00:00:29;;;;;;;;;;;;;;;;;;5144685;27;19930;-63
2022/07/21 00:02:55;;;;;;;;;;;;;;;;;;5146101;27;20283;-63
2022/07/21 00:05:22;;;;;;;;;;;;;;;;;;5145711;27;19923;-63
2022/07/21 00:07:48;;;;;;;;;;;;;;;;;;5145627;27;19930;-63
2022/07/21 00:10:13;;;;;;;;;;;;;;;;;;5146025;27;19931;-63
2022/07/21 00:12:40;;;;;;;;;;;;;;;;;;5145734;27;19930;-63
2022/07/21 00:15:06;;;;;;;;;;;;;;;;;;5145398;27;19975;-63
2022/07/21 00:17:32;;;;;;;;;;;;;;;;;;5133675;27;19927;-63
2022/07/21 00:19:58;;;;;;;;;;;;;;;;;;5145385;27;19962;-63
2022/07/21 00:22:23;;;;;;;;;;;;;;;;;;5146598;27;19923;-63
2022/07/21 00:24:49;;;;;;;;;;;;;;;;;;5145451;27;20013;-63
2022/07/21 00:27:15;;;;;;;;;;;;;;;;;;5146470;27;19927;-63
2022/07/21 00:29:41;;;;;;;;;;;;;;;;;;5145297;27;19923;-63
2022/07/21 00:32:07;;;;;;;;;;;;;;;;;;5145742;27;19927;-63
2022/07/21 00:34:33;;;;;;;;;;;;;;;;;;5144076;27;19927;-63
2022/07/21 00:36:59;;;;;;;;;;;;;;;;;;5145454;27;19923;-63
2022/07/21 00:39:25;;;;;;;;;;;;;;;;;;5143004;27;20387;-63
2022/07/21 00:41:51;;;;;;;;;;;;;;;;;;5145968;27;19927;-63
2022/07/21 00:44:17;;;;;;;;;;;;;;;;;;5146727;27;20318;-63
2022/07/21 00:46:43;;;;;;;;;;;;;;;;;;5145313;27;20030;-63
2022/07/21 00:49:09;;;;;;;;;;;;;;;;;;5146010;27;20387;-63
2022/07/21 00:51:35;;;;;;;;;;;;;;;;;;5145158;27;19923;-64
2022/07/21 00:54:01;;;;;;;;;;;;;;;;;;5146037;27;19948;-63
2022/07/21 00:56:27;;;;;;;;;;;;;;;;;;5143912;27;19923;-63
2022/07/21 00:58:53;;;;;;;;;;;;;;;;;;5144383;27;19923;-64
2022/07/21 01:01:19;;;;;;;;;;;;;;;;;;5146698;27;20063;-63
2022/07/21 01:03:45;;;;;;;;;;;;;;;;;;5141003;27;19923;-64
2022/07/21 01:06:11;;;;;;;;;;;;;;;;;;5120797;22;19924;-64
2022/07/21 01:08:37;;;;;;;;;;;;;;;;;;5086232;28;19931;-64
2022/07/21 01:11:03;;;;;;;;;;;;;;;;;;5086134;28;19920;-64
2022/07/21 01:13:29;;;;;;;;;;;;;;;;;;5086041;28;19924;-64
2022/07/21 01:15:55;;;;;;;;;;;;;;;;;;5085685;28;20404;-64
2022/07/21 01:18:21;;;;;;;;;;;;;;;;;;5085242;28;19963;-64
2022/07/21 01:20:47;;;;;;;;;;;;;;;;;;5085807;28;19955;-64
2022/07/21 01:23:13;;;;;;;;;;;;;;;;;;5085503;28;19925;-64
2022/07/21 01:25:39;;;;;;;;;;;;;;;;;;5086263;28;20408;-64
2022/07/21 01:28:05;;;;;;;;;;;;;;;;;;5085825;28;19945;-64
2022/07/21 01:30:31;;;;;;;;;;;;;;;;;;5085666;28;19971;-64
2022/07/21 01:32:57;;;;;;;;;;;;;;;;;;5085136;28;19924;-64
2022/07/21 01:35:23;;;;;;;;;;;;;;;;;;5085188;28;19931;-65
2022/07/21 01:37:49;;;;;;;;;;;;;;;;;;5085172;28;20369;-64
2022/07/21 01:42:59;;;;;;;;;;;;;;;;;;5085840;28;20432;-64
2022/07/21 01:45:25;;;;;;;;;;;;;;;;;;5084452;28;20389;-64
2022/07/21 01:47:51;;;;;;;;;;;;;;;;;;5084722;28;19923;-64
2022/07/21 01:50:20;;;;;;;;;;;;;;;;;;5084930;28;19924;-64
2022/07/21 01:52:46;;;;;;;;;;;;;;;;;;5081721;28;19924;-64
2022/07/21 01:55:12;;;;;;;;;;;;;;;;;;5085345;28;19931;-64
2022/07/21 01:57:38;;;;;;;;;;;;;;;;;;5085688;28;19999;-64
2022/07/21 02:00:04;;;;;;;;;;;;;;;;;;5085268;28;20018;-64
2022/07/21 02:02:30;;;;;;;;;;;;;;;;;;5084899;28;19999;-64
2022/07/21 02:04:56;;;;;;;;;;;;;;;;;;5084332;28;19924;-64
2022/07/21 02:07:22;;;;;;;;;;;;;;;;;;5084738;28;20460;-63
2022/07/21 02:09:48;;;;;;;;;;;;;;;;;;5084502;28;19928;-64
2022/07/21 02:12:14;;;;;;;;;;;;;;;;;;5084289;28;19932;-64
2022/07/21 02:14:40;;;;;;;;;;;;;;;;;;5085298;28;19927;-64
2022/07/21 02:17:06;;;;;;;;;;;;;;;;;;5085530;28;19925;-64
2022/07/21 02:19:32;;;;;;;;;;;;;;;;;;5084090;28;19998;-64
2022/07/21 02:21:58;;;;;;;;;;;;;;;;;;5085228;28;19927;-64
2022/07/21 02:24:24;;;;;;;;;;;;;;;;;;5084435;28;19967;-64
2022/07/21 02:26:50;;;;;;;;;;;;;;;;;;5084792;28;19979;-64
2022/07/21 02:29:16;;;;;;;;;;;;;;;;;;5084024;28;19999;-63
2022/07/21 02:31:42;;;;;;;;;;;;;;;;;;5083317;28;19932;-64
2022/07/21 02:34:08;;;;;;;;;;;;;;;;;;5082505;28;20377;-64
2022/07/21 02:36:34;;;;;;;;;;;;;;;;;;5083533;28;20018;-64
2022/07/21 02:39:00;;;;;;;;;;;;;;;;;;5084548;28;20038;-64
2022/07/21 02:41:26;;;;;;;;;;;;;;;;;;5084652;28;19924;-64
2022/07/21 02:43:52;;;;;;;;;;;;;;;;;;5066241;28;19933;-64
2022/07/21 02:46:18;;;;;;;;;;;;;;;;;;5083872;28;19924;-64
2022/07/21 02:48:44;;;;;;;;;;;;;;;;;;5083929;28;20365;-64
2022/07/21 02:51:10;;;;;;;;;;;;;;;;;;5084908;28;19932;-64
2022/07/21 02:53:36;;;;;;;;;;;;;;;;;;5084826;28;19924;-64
2022/07/21 02:56:02;;;;;;;;;;;;;;;;;;5087080;28;20341;-64
2022/07/21 02:58:28;;;;;;;;;;;;;;;;;;5070418;28;19951;-64
2022/07/21 03:00:54;;;;;;;;;;;;;;;;;;5088324;28;20633;-64
2022/07/21 03:03:20;;;;;;;;;;;;;;;;;;5087965;28;19928;-63
2022/07/21 03:05:46;;;;;;;;;;;;;;;;;;5088446;28;19928;-64
2022/07/21 03:08:12;;;;;;;;;;;;;;;;;;5069486;28;19971;-64
2022/07/21 03:10:38;;;;;;;;;;;;;;;;;;5088677;28;19931;-64
2022/07/21 03:13:04;;;;;;;;;;;;;;;;;;5088158;28;19931;-64
2022/07/21 03:15:30;;;;;;;;;;;;;;;;;;5088025;28;19943;-64
2022/07/21 03:17:56;;;;;;;;;;;;;;;;;;5087812;28;19924;-64
2022/07/21 03:20:22;;;;;;;;;;;;;;;;;;5087972;28;19954;-64
2022/07/21 03:22:48;;;;;;;;;;;;;;;;;;5087948;28;20011;-64
2022/07/21 03:25:14;;;;;;;;;;;;;;;;;;5087921;28;19920;-64
2022/07/21 03:27:40;;;;;;;;;;;;;;;;;;5088296;28;19935;-64
2022/07/21 03:30:06;;;;;;;;;;;;;;;;;;5088169;28;19927;-64
2022/07/21 03:32:32;;;;;;;;;;;;;;;;;;5087334;28;19928;-64
2022/07/21 03:34:58;;;;;;;;;;;;;;;;;;5084289;28;19967;-64
2022/07/21 03:37:24;;;;;;;;;;;;;;;;;;5087922;28;19943;-64
2022/07/21 03:39:50;;;;;;;;;;;;;;;;;;5069537;28;20395;-64
2022/07/21 03:42:16;;;;;;;;;;;;;;;;;;5087796;28;19999;-64
2022/07/21 03:44:42;;;;;;;;;;;;;;;;;;5087941;28;19924;-64
2022/07/21 03:47:07;;;;;;;;;;;;;;;;;;5088164;28;20364;-64
2022/07/21 03:49:33;;;;;;;;;;;;;;;;;;5086915;28;19924;-64
2022/07/21 03:51:59;;;;;;;;;;;;;;;;;;5087704;28;20357;-64
2022/07/21 03:54:25;;;;;;;;;;;;;;;;;;5087596;28;19969;-63
2022/07/21 03:56:51;;;;;;;;;;;;;;;;;;5087847;28;19924;-64
2022/07/21 03:59:17;;;;;;;;;;;;;;;;;;5087079;28;20005;-64
2022/07/21 04:01:43;;;;;;;;;;;;;;;;;;5087666;28;19928;-64
2022/07/21 04:04:09;;;;;;;;;;;;;;;;;;5087264;28;19928;-64
2022/07/21 04:06:35;;;;;;;;;;;;;;;;;;5086065;28;19936;-64
2022/07/21 04:09:01;;;;;;;;;;;;;;;;;;5087179;28;19927;-64
2022/07/21 04:11:29;;;;;;;;;;;;;;;;;;5069110;28;19999;-64
2022/07/21 04:13:55;;;;;;;;;;;;;;;;;;5087486;28;19932;-63
2022/07/21 04:16:21;;;;;;;;;;;;;;;;;;5086976;28;19979;-64
2022/07/21 04:18:47;;;;;;;;;;;;;;;;;;5086556;28;19960;-63
2022/07/21 04:21:13;;;;;;;;;;;;;;;;;;5086687;28;19931;-64
2022/07/21 04:23:39;;;;;;;;;;;;;;;;;;5087201;28;20449;-64
2022/07/21 04:26:05;;;;;;;;;;;;;;;;;;5087129;28;20011;-63
2022/07/21 04:28:31;;;;;;;;;;;;;;;;;;5084388;28;20381;-63
2022/07/21 04:30:57;;;;;;;;;;;;;;;;;;5087190;28;19999;-64
2022/07/21 04:33:23;;;;;;;;;;;;;;;;;;5086186;28;20385;-64
2022/07/21 04:35:49;;;;;;;;;;;;;;;;;;5086874;28;19943;-64
2022/07/21 04:38:15;;;;;;;;;;;;;;;;;;5086514;28;20387;-63
2022/07/21 04:40:41;;;;;;;;;;;;;;;;;;5086648;28;19930;-63
2022/07/21 04:43:07;;;;;;;;;;;;;;;;;;5087000;28;20027;-64
2022/07/21 04:45:33;;;;;;;;;;;;;;;;;;5086324;28;19920;-64
2022/07/21 04:47:59;;;;;;;;;;;;;;;;;;5085683;28;19924;-63
2022/07/21 04:50:25;;;;;;;;;;;;;;;;;;5086655;28;19967;-64
2022/07/21 04:52:51;;;;;;;;;;;;;;;;;;5086747;28;19924;-64
2022/07/21 04:55:17;;;;;;;;;;;;;;;;;;5086165;28;19931;-64
2022/07/21 04:57:43;;;;;;;;;;;;;;;;;;5086150;28;19927;-64
2022/07/21 05:00:09;;;;;;;;;;;;;;;;;;5087123;28;20392;-64
2022/07/21 05:02:35;;;;;;;;;;;;;;;;;;5085578;28;19924;-64
2022/07/21 05:05:01;;;;;;;;;;;;;;;;;;5086150;28;19939;-64
2022/07/21 05:07:27;;;;;;;;;;;;;;;;;;5085620;28;19939;-64
2022/07/21 05:09:53;;;;;;;;;;;;;;;;;;5086125;28;19963;-64
2022/07/21 05:12:19;;;;;;;;;;;;;;;;;;5086020;28;20436;-64
2022/07/21 05:14:45;;;;;;;;;;;;;;;;;;5086071;28;19920;-64
2022/07/21 05:17:11;;;;;;;;;;;;;;;;;;5067705;28;20385;-64
2022/07/21 05:19:37;;;;;;;;;;;;;;;;;;5085044;28;19924;-64
2022/07/21 05:22:03;;;;;;;;;;;;;;;;;;5085416;28;20020;-64
2022/07/21 05:24:29;;;;;;;;;;;;;;;;;;5085246;28;19924;-63
2022/07/21 05:26:55;;;;;;;;;;;;;;;;;;5085550;28;19924;-64
2022/07/21 05:29:21;;;;;;;;;;;;;;;;;;5085750;28;19954;-64
2022/07/21 05:31:47;;;;;;;;;;;;;;;;;;5085438;28;20377;-63
2022/07/21 05:34:13;;;;;;;;;;;;;;;;;;5079028;28;19985;-64
2022/07/21 05:36:38;;;;;;;;;;;;;;;;;;5084861;28;19974;-64
2022/07/21 05:39:05;;;;;;;;;;;;;;;;;;5085645;28;19938;-64
2022/07/21 05:41:31;;;;;;;;;;;;;;;;;;5084374;28;19928;-65
2022/07/21 05:43:56;;;;;;;;;;;;;;;;;;5085049;28;20397;-64
2022/07/21 05:46:22;;;;;;;;;;;;;;;;;;5086504;28;19981;-64
2022/07/21 05:48:48;;;;;;;;;;;;;;;;;;5084176;28;20019;-64
2022/07/21 05:51:14;;;;;;;;;;;;;;;;;;5080449;28;19942;-65
2022/07/21 05:53:40;;;;;;;;;;;;;;;;;;5078526;28;20340;-63
2022/07/21 05:56:06;;;;;;;;;;;;;;;;;;5077081;28;19936;-66
2022/07/21 05:58:32;;;;;;;;;;;;;;;;;;5066015;28;19928;-66
2022/07/21 06:01:08;;;;;;;;;;;;;;;;;;5085175;28;19975;-66
2022/07/21 06:03:34;;;;;;;;;;;;;;;;;;5084036;28;19924;-65
2022/07/21 06:06:00;;;;;;;;;;;;;;;;;;5084694;28;20363;-65
2022/07/21 06:08:26;;;;;;;;;;;;;;;;;;5084248;28;20086;-65
2022/07/21 06:10:52;;;;;;;;;;;;;;;;;;5084948;28;19978;-66
2022/07/21 06:13:18;;;;;;;;;;;;;;;;;;5084948;28;19924;-65
2022/07/21 06:15:44;;;;;;;;;;;;;;;;;;5082953;28;19924;-66
2022/07/21 06:18:10;;;;;;;;;;;;;;;;;;5083823;28;19928;-66
2022/07/21 06:20:36;;;;;;;;;;;;;;;;;;5085067;28;19977;-66
2022/07/21 06:23:02;;;;;;;;;;;;;;;;;;5084318;28;19932;-66
2022/07/21 06:25:28;;;;;;;;;;;;;;;;;;5085138;28;19924;-66
2022/07/21 06:27:54;;;;;;;;;;;;;;;;;;5082361;28;19924;-65
2022/07/21 06:30:20;;;;;;;;;;;;;;;;;;5084132;28;20444;-64
2022/07/21 06:32:46;;;;;;;;;;;;;;;;;;5084558;28;19924;-65
2022/07/21 06:35:12;;;;;;;;;;;;;;;;;;5083655;28;19978;-65
2022/07/21 06:37:38;;;;;;;;;;;;;;;;;;5084480;28;19924;-65
2022/07/21 06:40:04;;;;;;;;;;;;;;;;;;5083997;28;19974;-65
2022/07/21 06:42:32;;;;;;;;;;;;;;;;;;5083849;28;21359;-65
2022/07/21 06:44:58;;;;;;;;;;;;;;;;;;5084677;28;19924;-64
2022/07/21 06:47:24;;;;;;;;;;;;;;;;;;5083818;28;19966;-65
2022/07/21 06:49:50;;;;;;;;;;;;;;;;;;5084542;28;19931;-65
2022/07/21 06:52:16;;;;;;;;;;;;;;;;;;5080092;28;19924;-65
2022/07/21 06:54:42;;;;;;;;;;;;;;;;;;5084406;28;19971;-65
2022/07/21 06:57:08;;;;;;;;;;;;;;;;;;5084766;28;20003;-64
2022/07/21 06:59:34;;;;;;;;;;;;;;;;;;5084334;28;20006;-65
2022/07/21 07:02:00;;;;;;;;;;;;;;;;;;5083905;28;20019;-65
2022/07/21 07:04:26;;;;;;;;;;;;;;;;;;5083658;28;20429;-65
2022/07/21 07:06:54;;;;;;;;;;;;;;;;;;5084105;28;19931;-65
2022/07/21 07:09:20;;;;;;;;;;;;;;;;;;5084390;28;19927;-65
2022/07/21 07:11:46;;;;;;;;;;;;;;;;;;5084478;28;19930;-65
2022/07/21 07:14:13;;;;;;;;;;;;;;;;;;5083909;28;19924;-65
2022/07/21 07:16:39;;;;;;;;;;;;;;;;;;5065996;28;19931;-65
2022/07/21 07:19:05;;;;;;;;;;;;;;;;;;5083783;28;19924;-65
2022/07/21 07:21:31;;;;;;;;;;;;;;;;;;5083863;28;20010;-65
2022/07/21 07:23:57;;;;;;;;;;;;;;;;;;5084096;28;19953;-65
2022/07/21 07:26:23;;;;;;;;;;;;;;;;;;5083779;28;20429;-65
2022/07/21 07:28:49;;;;;;;;;;;;;;;;;;5084139;28;19920;-66
2022/07/21 07:31:15;;;;;;;;;;;;;;;;;;5083727;28;19924;-65
2022/07/21 07:33:41;;;;;;;;;;;;;;;;;;5083968;28;20002;-64
2022/07/21 07:36:10;;;;;;;;;;;;;;;;;;5083957;28;19931;-65
2022/07/21 07:38:36;;;;;;;;;;;;;;;;;;5084188;28;20021;-65
2022/07/21 07:41:02;;;;;;;;;;;;;;;;;;5083851;28;19933;-65
2022/07/21 07:43:28;;;;;;;;;;;;;;;;;;5086975;28;19924;-65
2022/07/21 07:45:54;;;;;;;;;;;;;;;;;;5087721;28;19928;-65
2022/07/21 07:48:20;;;;;;;;;;;;;;;;;;5086781;28;19997;-65
2022/07/21 07:50:46;;;;;;;;;;;;;;;;;;5069388;28;19974;-65
2022/07/21 07:53:13;;;;;;;;;;;;;;;;;;5087178;28;20404;-65
2022/07/21 07:55:39;;;;;;;;;;;;;;;;;;5087826;28;20384;-65
2022/07/21 07:58:05;;;;;;;;;;;;;;;;;;5069665;28;20007;-65
2022/07/21 08:00:31;;;;;;;;;;;;;;;;;;5087498;28;19927;-65
2022/07/21 08:02:57;;;;;;;;;;;;;;;;;;5086585;28;19924;-65
2022/07/21 08:05:23;;;;;;;;;;;;;;;;;;5087074;28;20002;-65
2022/07/21 08:07:49;;;;;;;;;;;;;;;;;;5087473;28;20341;-65
2022/07/21 08:10:15;;;;;;;;;;;;;;;;;;5087280;28;19947;-65
2022/07/21 08:12:41;;;;;;;;;;;;;;;;;;5086823;28;20300;-64
2022/07/21 08:15:07;;;;;;;;;;;;;;;;;;5087754;28;19946;-65
2022/07/21 08:17:33;;;;;;;;;;;;;;;;;;5086201;28;19969;-65
2022/07/21 08:19:59;;;;;;;;;;;;;;;;;;5087058;28;19924;-65
2022/07/21 08:22:25;;;;;;;;;;;;;;;;;;5087004;28;19924;-65
2022/07/21 08:24:51;;;;;;;;;;;;;;;;;;5084712;28;19924;-65
2022/07/21 08:27:17;;;;;;;;;;;;;;;;;;5086778;28;20370;-65
2022/07/21 08:29:43;;;;;;;;;;;;;;;;;;5086866;28;19925;-64
2022/07/21 08:32:09;;;;;;;;;;;;;;;;;;5086308;28;19943;-65
2022/07/21 08:34:35;;;;;;;;;;;;;;;;;;5086612;28;19976;-65
2022/07/21 08:37:01;;;;;;;;;;;;;;;;;;5085305;28;19990;-65
2022/07/21 08:39:27;;;;;;;;;;;;;;;;;;5086731;28;20444;-65
2022/07/21 08:41:53;;;;;;;;;;;;;;;;;;5086556;28;19932;-64
2022/07/21 08:44:19;;;;;;;;;;;;;;;;;;5085166;28;19924;-65
2022/07/21 08:46:45;;;;;;;;;;;;;;;;;;5085994;28;19924;-65
2022/07/21 08:49:11;;;;;;;;;;;;;;;;;;5086815;28;20377;-64
2022/07/21 08:51:37;;;;;;;;;;;;;;;;;;5086624;28;20058;-65
2022/07/21 08:54:03;;;;;;;;;;;;;;;;;;5067800;28;20293;-65
2022/07/21 08:56:29;;;;;;;;;;;;;;;;;;5086169;28;19931;-65
2022/07/21 08:58:55;;;;;;;;;;;;;;;;;;5082289;28;19961;-65
2022/07/21 09:01:23;;;;;;;;;;;;;;;;;;5086017;28;19931;-65
2022/07/21 09:03:49;;;;;;;;;;;;;;;;;;5085321;28;19920;-65
2022/07/21 09:06:16;;;;;;;;;;;;;;;;;;5086062;28;20010;-65
2022/07/21 09:08:42;;;;;;;;;;;;;;;;;;5085810;28;19985;-65
2022/07/21 09:11:08;;;;;;;;;;;;;;;;;;5086331;28;19928;-65
2022/07/21 09:13:34;;;;;;;;;;;;;;;;;;5085715;28;20458;-64
2022/07/21 09:16:00;;;;;;;;;;;;;;;;;;5085894;28;20164;-65
2022/07/21 09:18:26;;;;;;;;;;;;;;;;;;5067227;28;19928;-65
2022/07/21 09:20:53;;;;;;;;;;;;;;;;;;5085888;28;19924;-65
2022/07/21 09:23:19;;;;;;;;;;;;;;;;;;5085498;28;19927;-64
2022/07/21 09:25:45;;;;;;;;;;;;;;;;;;5086020;28;19931;-65
2022/07/21 09:28:11;;;;;;;;;;;;;;;;;;5085262;28;20373;-64
2022/07/21 09:30:37;;;;;;;;;;;;;;;;;;5086048;28;20006;-65
2022/07/21 09:33:03;;;;;;;;;;;;;;;;;;5085046;28;19924;-64
2022/07/21 09:35:29;;;;;;;;;;;;;;;;;;5085557;28;19959;-64
2022/07/21 09:37:55;;;;;;;;;;;;;;;;;;5085602;28;19924;-64
2022/07/21 09:40:21;;;;;;;;;;;;;;;;;;5085408;28;20006;-64
2022/07/21 09:42:47;;;;;;;;;;;;;;;;;;5085487;28;19971;-64
2022/07/21 09:45:13;;;;;;;;;;;;;;;;;;5085326;28;19924;-64
2022/07/21 09:47:39;;;;;;;;;;;;;;;;;;5066260;28;19925;-64
2022/07/21 09:50:05;;;;;;;;;;;;;;;;;;5086156;28;20448;-64
2022/07/21 09:52:31;;;;;;;;;;;;;;;;;;5084970;28;19979;-64
2022/07/21 09:54:57;;;;;;;;;;;;;;;;;;5085362;28;19928;-64
2022/07/21 09:57:23;;;;;;;;;;;;;;;;;;5085110;28;19924;-65
2022/07/21 09:59:49;;;;;;;;;;;;;;;;;;5084911;28;19943;-64
2022/07/21 10:02:15;;;;;;;;;;;;;;;;;;5084368;28;19928;-65
2022/07/21 10:04:41;;;;;;;;;;;;;;;;;;5084570;28;20459;-64
2022/07/21 10:07:07;;;;;;;;;;;;;;;;;;5085088;28;20366;-65
2022/07/21 10:09:33;;;;;;;;;;;;;;;;;;5084548;28;19982;-64
2022/07/21 10:11:59;;;;;;;;;;;;;;;;;;5084902;28;19924;-66
2022/07/21 10:14:25;;;;;;;;;;;;;;;;;;5084462;28;19920;-65
2022/07/21 10:16:51;;;;;;;;;;;;;;;;;;5084097;28;21823;-65
2022/07/21 10:19:17;;;;;;;;;;;;;;;;;;5084976;28;19924;-65
2022/07/21 10:21:43;;;;;;;;;;;;;;;;;;5082288;28;19930;-66
2022/07/21 10:24:09;;;;;;;;;;;;;;;;;;5085191;28;19931;-65
2022/07/21 10:26:35;;;;;;;;;;;;;;;;;;5083876;28;19921;-65
2022/07/21 10:29:01;;;;;;;;;;;;;;;;;;5084610;28;19928;-65
2022/07/21 10:31:27;;;;;;;;;;;;;;;;;;5084176;28;19924;-65
2022/07/21 10:33:53;;;;;;;;;;;;;;;;;;5084725;28;19963;-65
2022/07/21 10:36:19;;;;;;;;;;;;;;;;;;5084592;28;20348;-65
2022/07/21 10:38:45;;;;;;;;;;;;;;;;;;5084921;28;20015;-65
2022/07/21 10:41:11;;;;;;;;;;;;;;;;;;5080469;28;19951;-65
2022/07/21 10:43:37;;;;;;;;;;;;;;;;;;5084560;28;20459;-65
2022/07/21 10:46:03;;;;;;;;;;;;;;;;;;5084216;28;19924;-65
2022/07/21 10:48:29;;;;;;;;;;;;;;;;;;5083087;28;19973;-65
2022/07/21 10:50:55;;;;;;;;;;;;;;;;;;5065263;28;20270;-65
2022/07/21 10:53:21;;;;;;;;;;;;;;;;;;5083398;28;20023;-65
2022/07/21 10:55:47;;;;;;;;;;;;;;;;;;5084273;28;20385;-64
2022/07/21 10:58:14;;;;;;;;;;;;;;;;;;5084221;28;19959;-64
2022/07/21 11:00:39;;;;;;;;;;;;;;;;;;5080999;28;20296;-64
2022/07/21 11:03:05;;;;;;;;;;;;;;;;;;5082436;28;19924;-64
2022/07/21 11:05:31;;;;;;;;;;;;;;;;;;5081940;28;20732;-64
2022/07/21 11:07:57;;;;;;;;;;;;;;;;;;5082887;28;19924;-64
2022/07/21 11:10:25;;;;;;;;;;;;;;;;;;5078404;28;20015;-64
2022/07/21 11:12:51;;;;;;;;;;;;;;;;;;5077456;28;19980;-64
2022/07/21 11:15:17;;;;;;;;;;;;;;;;;;5077291;28;20336;-64
2022/07/21 11:17:43;;;;;;;;;;;;;;;;;;5082949;28;20024;-64
2022/07/21 11:20:09;;;;;;;;;;;;;;;;;;5088422;28;20408;-63
2022/07/21 11:22:35;;;;;;;;;;;;;;;;;;5087198;28;19924;-64
2022/07/21 11:25:01;;;;;;;;;;;;;;;;;;5085607;28;19924;-63
2022/07/21 11:27:27;;;;;;;;;;;;;;;;;;5081975;28;20023;-64
2022/07/21 11:29:53;;;;;;;;;;;;;;;;;;5086494;28;20557;-63
2022/07/21 11:32:19;;;;;;;;;;;;;;;;;;5088089;28;19924;-64
2022/07/21 11:34:45;;;;;;;;;;;;;;;;;;5088666;28;19924;-64
2022/07/21 11:37:11;;;;;;;;;;;;;;;;;;5088364;28;19924;-63
2022/07/21 11:39:37;;;;;;;;;;;;;;;;;;5088891;28;19975;-63
2022/07/21 11:42:03;;;;;;;;;;;;;;;;;;5088506;28;19974;-64
2022/07/21 11:44:29;;;;;;;;;;;;;;;;;;5088520;28;19931;-64
2022/07/21 11:46:55;;;;;;;;;;;;;;;;;;5070059;28;19928;-64
2022/07/21 11:49:21;;;;;;;;;;;;;;;;;;5088294;28;19924;-63
2022/07/21 11:51:47;;;;;;;;;;;;;;;;;;5088530;28;19976;-63
2022/07/21 11:54:13;;;;;;;;;;;;;;;;;;5088077;28;20006;-64
2022/07/21 11:56:40;;;;;;;;;;;;;;;;;;5089200;28;20377;-64
2022/07/21 11:59:06;;;;;;;;;;;;;;;;;;5089056;28;19946;-63
2022/07/21 12:01:32;;;;;;;;;;;;;;;;;;5087547;28;20385;-63
2022/07/21 12:03:58;;;;;;;;;;;;;;;;;;5088186;28;19968;-64
2022/07/21 12:06:24;;;;;;;;;;;;;;;;;;5087888;28;19924;-63
2022/07/21 12:08:50;;;;;;;;;;;;;;;;;;5087557;28;19931;-63
2022/07/21 12:11:16;;;;;;;;;;;;;;;;;;5083735;28;19920;-63
2022/07/21 12:13:42;;;;;;;;;;;;;;;;;;5084235;28;19959;-63
2022/07/21 12:16:08;;;;;;;;;;;;;;;;;;5083753;28;19954;-63
2022/07/21 12:18:34;;;;;;;;;;;;;;;;;;5084211;28;19924;-63
2022/07/21 12:21:00;;;;;;;;;;;;;;;;;;5083616;28;19997;-63
2022/07/21 12:23:26;;;;;;;;;;;;;;;;;;5083689;28;19927;-63
2022/07/21 12:25:52;;;;;;;;;;;;;;;;;;5084574;28;20012;-63
2022/07/21 12:28:18;;;;;;;;;;;;;;;;;;5084231;28;20014;-64
2022/07/21 12:30:44;;;;;;;;;;;;;;;;;;5084326;28;19934;-63
2022/07/21 12:33:10;;;;;;;;;;;;;;;;;;5084689;28;19924;-64
2022/07/21 12:35:36;;;;;;;;;;;;;;;;;;5084409;28;19928;-63
2022/07/21 12:38:02;;;;;;;;;;;;;;;;;;5063404;28;19954;-63
2022/07/21 12:40:29;;;;;;;;;;;;;;;;;;5083617;28;20011;-63
2022/07/21 12:42:54;;;;;;;;;;;;;;;;;;5084262;28;19950;-64
2022/07/21 12:45:21;;;;;;;;;;;;;;;;;;5084719;28;19920;-63
2022/07/21 12:47:46;;;;;;;;;;;;;;;;;;5084179;28;19928;-63
2022/07/21 12:50:13;;;;;;;;;;;;;;;;;;5083686;28;19977;-63
2022/07/21 12:52:39;;;;;;;;;;;;;;;;;;5084121;28;19930;-63
2022/07/21 12:55:05;;;;;;;;;;;;;;;;;;5084831;28;20331;-63
2022/07/21 12:57:32;;;;;;;;;;;;;;;;;;5082106;28;20003;-63
2022/07/21 12:59:58;;;;;;;;;;;;;;;;;;5083319;28;19963;-63
2022/07/21 13:02:24;;;;;;;;;;;;;;;;;;5083338;28;19924;-63
2022/07/21 13:04:50;;;;;;;;;;;;;;;;;;5084260;28;19931;-63
2022/07/21 13:07:16;;;;;;;;;;;;;;;;;;5084106;28;19924;-63
2022/07/21 13:09:42;;;;;;;;;;;;;;;;;;5083979;28;19938;-63
2022/07/21 13:12:08;;;;;;;;;;;;;;;;;;5083904;28;19947;-63
2022/07/21 13:14:34;;;;;;;;;;;;;;;;;;5083199;28;20074;-63
2022/07/21 13:17:00;;;;;;;;;;;;;;;;;;5083764;28;19994;-63
2022/07/21 13:19:26;;;;;;;;;;;;;;;;;;5063348;28;19924;-64
2022/07/21 13:21:52;;;;;;;;;;;;;;;;;;5083825;28;19931;-63
2022/07/21 13:24:18;;;;;;;;;;;;;;;;;;5083624;28;19924;-63
2022/07/21 13:26:44;;;;;;;;;;;;;;;;;;5082931;28;19928;-64
2022/07/21 13:29:10;;;;;;;;;;;;;;;;;;5083232;28;19935;-64
2022/07/21 13:31:36;;;;;;;;;;;;;;;;;;5081766;28;19924;-63
2022/07/21 13:34:02;;;;;;;;;;;;;;;;;;5082869;28;19931;-63
2022/07/21 13:36:28;;;;;;;;;;;;;;;;;;5082695;28;20317;-63
2022/07/21 13:38:56;;;;;;;;;;;;;;;;;;5082470;28;19924;-63
2022/07/21 13:41:21;;;;;;;;;;;;;;;;;;5082248;28;20339;-64
2022/07/21 13:43:48;;;;;;;;;;;;;;;;;;5083587;28;20377;-63
2022/07/21 13:46:14;;;;;;;;;;;;;;;;;;5082658;28;19924;-63
2022/07/21 13:48:40;;;;;;;;;;;;;;;;;;5083456;28;19928;-63
2022/07/21 13:51:06;;;;;;;;;;;;;;;;;;5082786;28;19928;-64
2022/07/21 13:53:32;;;;;;;;;;;;;;;;;;5082611;28;19935;-64
2022/07/21 13:55:58;;;;;;;;;;;;;;;;;;5081337;28;19924;-63
2022/07/21 13:58:24;;;;;;;;;;;;;;;;;;5082638;28;20004;-63
2022/07/21 14:00:51;;;;;;;;;;;;;;;;;;5082350;28;19924;-63
2022/07/21 14:03:17;;;;;;;;;;;;;;;;;;5083736;28;20014;-63
2022/07/21 14:05:43;;;;;;;;;;;;;;;;;;5082710;28;19971;-64
2022/07/21 14:08:09;;;;;;;;;;;;;;;;;;5083075;28;19971;-63
2022/07/21 14:10:36;;;;;;;;;;;;;;;;;;5082802;28;20398;-63
2022/07/21 14:13:02;;;;;;;;;;;;;;;;;;5083286;28;19924;-64
2022/07/21 14:15:28;;;;;;;;;;;;;;;;;;5081671;28;19930;-64
2022/07/21 14:17:54;;;;;;;;;;;;;;;;;;5081765;28;20015;-64
2022/07/21 14:20:20;;;;;;;;;;;;;;;;;;5082324;28;20015;-63
2022/07/21 14:22:46;;;;;;;;;;;;;;;;;;5082129;28;19924;-64
2022/07/21 14:25:18;;;;;;;;;;;;;;;;;;5082593;28;19977;-63
2022/07/21 14:27:44;;;;;;;;;;;;;;;;;;5082665;28;19924;-64
2022/07/21 14:30:10;;;;;;;;;;;;;;;;;;5082550;28;19924;-63
2022/07/21 14:32:36;;;;;;;;;;;;;;;;;;5081152;28;19947;-63
2022/07/21 14:35:02;;;;;;;;;;;;;;;;;;5078755;28;20022;-63
2022/07/21 14:37:28;;;;;;;;;;;;;;;;;;5081120;28;20016;-64
2022/07/21 14:39:54;;;;;;;;;;;;;;;;;;5083229;28;19931;-64
2022/07/21 14:42:23;;;;;;;;;;;;;;;;;;5082256;28;20003;-63
2022/07/21 14:44:49;;;;;;;;;;;;;;;;;;5081587;28;19931;-64
2022/07/21 14:47:15;;;;;;;;;;;;;;;;;;5080657;28;19920;-63
2022/07/21 14:49:41;;;;;;;;;;;;;;;;;;5083253;28;20017;-63
2022/07/21 14:52:08;;;;;;;;;;;;;;;;;;5081740;28;19990;-64
2022/07/21 14:54:34;;;;;;;;;;;;;;;;;;5081925;28;20018;-63
2022/07/21 14:57:00;;;;;;;;;;;;;;;;;;5082229;28;20039;-64
2022/07/21 14:59:26;;;;;;;;;;;;;;;;;;5082157;28;20598;-64
2022/07/21 15:01:52;;;;;;;;;;;;;;;;;;5080222;28;20020;-64
2022/07/21 15:04:20;;;;;;;;;;;;;;;;;;5078951;28;20026;-63
2022/07/21 15:06:46;;;;;;;;;;;;;;;;;;5081625;28;19924;-63
2022/07/21 15:09:12;;;;;;;;;;;;;;;;;;5081017;28;20018;-63
2022/07/21 15:11:38;;;;;;;;;;;;;;;;;;5082395;28;20002;-64
2022/07/21 15:14:04;;;;;;;;;;;;;;;;;;5079296;28;19974;-63
2022/07/21 15:16:30;;;;;;;;;;;;;;;;;;5062835;28;19967;-64
2022/07/21 15:18:56;;;;;;;;;;;;;;;;;;5081695;28;19931;-63
2022/07/21 15:21:22;;;;;;;;;;;;;;;;;;5081709;28;19935;-63
2022/07/21 15:23:48;;;;;;;;;;;;;;;;;;5081345;28;19924;-64
2022/07/21 15:26:14;;;;;;;;;;;;;;;;;;5082021;28;20285;-63
2022/07/21 15:28:40;;;;;;;;;;;;;;;;;;5080959;28;20381;-64
2022/07/21 15:31:06;;;;;;;;;;;;;;;;;;5081609;28;19929;-64
2022/07/21 15:33:32;;;;;;;;;;;;;;;;;;5062293;28;20074;-64
2022/07/21 15:35:58;;;;;;;;;;;;;;;;;;5080684;28;20023;-64
2022/07/21 15:38:24;;;;;;;;;;;;;;;;;;5079958;28;19924;-64
2022/07/21 15:40:50;;;;;;;;;;;;;;;;;;5081597;28;19947;-65
2022/07/21 15:43:16;;;;;;;;;;;;;;;;;;5055910;28;19931;-65
2022/07/21 15:45:42;;;;;;;;;;;;;;;;;;5071180;28;19936;-64
2022/07/21 15:48:08;;;;;;;;;;;;;;;;;;5073569;28;19920;-66
2022/07/21 15:50:35;;;;;;;;;;;;;;;;;;5072762;28;19988;-61
2022/07/21 15:53:01;;;;;;;;;;;;;;;;;;5073872;28;19981;-63
2022/07/21 15:55:27;;;;;;;;;;;;;;;;;;5070131;28;20023;-63
2022/07/21 15:57:54;;;;;;;;;;;;;;;;;;5070727;28;19939;-63
2022/07/21 16:00:20;;;;;;;;;;;;;;;;;;5070373;28;19935;-63
2022/07/21 16:02:46;;;;;;;;;;;;;;;;;;5068949;28;19932;-64
2022/07/21 16:05:12;;;;;;;;;;;;;;;;;;5076366;28;19924;-63
2022/07/21 16:07:38;;;;;;;;;;;;;;;;;;5078372;28;20595;-64
2022/07/21 16:10:04;;;;;;;;;;;;;;;;;;5078979;28;19924;-64
2022/07/21 16:12:30;;;;;;;;;;;;;;;;;;5079192;28;19931;-64
2022/07/21 16:14:56;;;;;;;;;;;;;;;;;;5085355;28;19928;-64
2022/07/21 16:17:22;;;;;;;;;;;;;;;;;;5084337;28;19947;-64
2022/07/21 16:19:48;;;;;;;;;;;;;;;;;;5085225;28;19924;-64
2022/07/21 16:22:14;;;;;;;;;;;;;;;;;;5085896;28;19972;-62
2022/07/21 16:24:40;;;;;;;;;;;;;;;;;;5071386;28;19943;-63
2022/07/21 16:27:06;;;;;;;;;;;;;;;;;;5074484;28;19924;-64
2022/07/21 16:29:32;;;;;;;;;;;;;;;;;;5074716;28;19932;-64
2022/07/21 16:31:59;;;;;;;;;;;;;;;;;;5070970;28;20270;-64
2022/07/21 16:34:25;;;;;;;;;;;;;;;;;;5055691;28;19967;-64
2022/07/21 16:36:52;;;;;;;;;;;;;;;;;;5069174;28;19928;-64
2022/07/21 16:39:18;;;;;;;;;;;;;;;;;;5065510;28;19928;-63